Time;durP1;ratioP1;P1;durP2;ratioP2;P2;SDS_P1;SDS_P2;PMS_P1;PMS_P2;Temp;Humidity;BMP_temperature;BMP_pressure;BME280_temperature;BME280_humidity;BME280_pressure;Samples;Min_cycle;Max_cycle;Signal;HPM_P1;HPM_P2
2023/07/28 00:02:06;;;;;;;3.13;2.72;;;;;;;12.98;90.19;93226.28;5064668;28;20499;-71
2023/07/28 00:04:34;;;;;;;3.50;3.10;;;;;;;12.94;90.61;93224.16;5059489;28;20047;-71
2023/07/28 00:07:01;;;;;;;4.00;2.90;;;;;;;12.92;90.91;93221.00;5067735;28;20049;-71
2023/07/28 00:09:28;;;;;;;3.40;2.95;;;;;;;12.86;90.66;93227.06;5069833;28;20917;-71
2023/07/28 00:11:54;;;;;;;4.70;2.97;;;;;;;12.83;90.77;93214.63;5067668;28;20102;-71
2023/07/28 00:14:21;;;;;;;3.25;2.83;;;;;;;12.72;92.19;93221.31;5066277;28;20054;-71
2023/07/28 00:16:49;;;;;;;4.78;3.00;;;;;;;12.63;92.77;93227.81;5069732;28;20097;-71
2023/07/28 00:19:16;;;;;;;5.30;2.97;;;;;;;12.57;92.75;93224.31;5066226;28;20109;-71
2023/07/28 00:21:43;;;;;;;4.75;2.80;;;;;;;12.56;93.22;93227.91;5068688;28;20876;-71
2023/07/28 00:24:09;;;;;;;3.55;3.15;;;;;;;12.49;93.72;93222.84;5069444;28;20045;-71
2023/07/28 00:26:36;;;;;;;3.92;3.10;;;;;;;12.46;94.30;93225.09;5068507;28;20557;-71
2023/07/28 00:29:06;;;;;;;3.38;2.78;;;;;;;12.43;94.91;93216.81;5066923;28;20041;-71
2023/07/28 00:31:32;;;;;;;3.75;3.40;;;;;;;12.45;94.42;93211.41;5069246;28;20131;-71
2023/07/28 00:34:01;;;;;;;4.38;3.35;;;;;;;12.40;95.14;93216.44;5068392;28;20040;-71
2023/07/28 00:36:27;;;;;;;4.38;2.95;;;;;;;12.38;95.23;93210.72;5066914;28;20453;-71
2023/07/28 00:38:54;;;;;;;3.78;3.38;;;;;;;12.37;94.79;93212.50;5063953;28;20037;-71
2023/07/28 00:41:21;;;;;;;4.45;3.53;;;;;;;12.37;95.09;93217.66;5067498;28;20174;-71
2023/07/28 00:43:47;;;;;;;3.45;2.88;;;;;;;12.37;95.34;93216.91;5068011;28;20049;-71
2023/07/28 00:46:15;;;;;;;4.35;3.35;;;;;;;12.34;95.61;93212.97;5062366;28;20049;-71
2023/07/28 00:48:42;;;;;;;4.00;3.20;;;;;;;12.41;95.56;93215.47;5068291;28;20094;-71
2023/07/28 00:51:10;;;;;;;3.95;3.10;;;;;;;12.42;94.42;93212.63;5066648;28;20556;-71
2023/07/28 00:53:37;;;;;;;3.38;3.00;;;;;;;12.42;93.88;93212.63;5067289;28;20090;-71
2023/07/28 00:56:06;;;;;;;3.58;3.10;;;;;;;12.41;93.30;93215.47;5066434;28;20049;-71
2023/07/28 00:58:33;;;;;;;5.20;2.95;;;;;;;12.41;93.47;93221.38;5064027;28;20543;-71
2023/07/28 01:01:00;;;;;;;3.60;2.85;;;;;;;12.35;93.03;93219.69;5067488;28;21214;-71
2023/07/28 01:03:27;;;;;;;6.55;2.75;;;;;;;12.24;93.13;93223.81;5068792;28;20045;-71
2023/07/28 01:06:02;;;;;;;3.45;2.95;;;;;;;12.11;92.91;93195.66;5066870;28;20449;-70
2023/07/28 01:08:37;;;;;;;3.17;2.80;;;;;;;12.19;92.43;93220.31;5066343;28;20040;-71
2023/07/28 01:11:04;;;;;;;3.50;3.10;;;;;;;12.14;91.80;93218.41;5065890;28;20162;-71
2023/07/28 01:13:31;;;;;;;3.25;2.92;;;;;;;12.08;93.13;93211.53;5067487;28;20879;-71
2023/07/28 01:16:00;;;;;;;4.70;3.10;;;;;;;12.06;93.68;93214.34;5065975;28;20818;-71
2023/07/28 01:18:27;;;;;;;3.90;3.33;;;;;;;11.98;93.61;93206.88;5067550;28;20048;-71
2023/07/28 01:20:57;;;;;;;3.80;3.25;;;;;;;11.93;94.38;93215.25;5065638;28;20098;-71
2023/07/28 01:23:38;;;;;;;4.30;3.13;;;;;;;11.80;96.41;93213.63;5063677;28;20098;-71
2023/07/28 01:26:09;;;;;;;4.22;3.15;;;;;;;11.76;97.53;93210.72;5067395;28;20036;-71
2023/07/28 01:28:41;;;;;;;4.28;3.03;;;;;;;11.85;96.21;93206.03;5064976;28;20041;-71
2023/07/28 01:31:08;;;;;;;3.22;2.75;;;;;;;11.87;94.75;93209.22;5064609;28;20499;-71
2023/07/28 01:33:36;;;;;;;3.65;2.95;;;;;;;11.87;94.69;93214.34;5065103;28;20041;-71
2023/07/28 01:36:02;;;;;;;5.05;3.10;;;;;;;11.82;94.43;93200.56;5067268;28;20521;-71
2023/07/28 01:38:30;;;;;;;3.20;2.83;;;;;;;11.79;94.52;93203.56;5062103;28;20339;-71
2023/07/28 01:40:56;;;;;;;4.97;2.83;;;;;;;11.76;94.01;93202.97;5066454;28;20052;-72
2023/07/28 01:43:23;;;;;;;4.00;3.30;;;;;;;11.74;95.56;93204.19;5066743;28;20048;-71
2023/07/28 01:45:51;;;;;;;3.35;3.05;;;;;;;11.73;96.14;93206.00;5065303;28;20040;-71
2023/07/28 01:48:18;;;;;;;3.40;3.10;;;;;;;11.74;95.29;93207.56;5064606;28;20049;-71
2023/07/28 01:50:45;;;;;;;4.70;3.25;;;;;;;11.77;94.60;93204.56;5063797;28;20395;-71
2023/07/28 01:53:11;;;;;;;3.20;2.85;;;;;;;11.79;94.89;93201.75;5066200;28;20068;-70
2023/07/28 01:55:38;;;;;;;4.60;3.00;;;;;;;11.79;93.99;93206.91;5065685;28;20053;-73
2023/07/28 01:58:05;;;;;;;5.53;2.70;;;;;;;11.74;94.64;93199.84;5063920;28;20568;-69
2023/07/28 02:00:31;;;;;;;3.00;2.60;;;;;;;11.73;94.29;93200.06;5067047;28;20161;-72
2023/07/28 02:03:01;;;;;;;3.50;3.00;;;;;;;11.66;93.89;93197.56;5065772;28;20044;-71
2023/07/28 02:05:28;;;;;;;3.45;3.10;;;;;;;11.70;93.58;93203.84;5063630;28;20044;-71
2023/07/28 02:07:55;;;;;;;3.28;2.55;;;;;;;11.65;94.32;93201.13;5063317;28;20041;-71
2023/07/28 02:10:23;;;;;;;3.17;2.45;;;;;;;11.60;94.55;93198.44;5065349;28;20048;-71
2023/07/28 02:12:50;;;;;;;3.05;2.30;;;;;;;11.51;95.10;93200.50;5063382;28;20041;-71
2023/07/28 02:15:17;;;;;;;2.88;2.30;;;;;;;11.50;95.23;93206.66;5064777;28;20117;-73
2023/07/28 02:17:44;;;;;;;3.58;2.88;;;;;;;11.43;95.55;93214.44;5066389;28;20082;-72
2023/07/28 02:20:12;;;;;;;3.28;2.70;;;;;;;11.41;95.69;93206.16;5064355;28;20102;-72
2023/07/28 02:22:39;;;;;;;8.25;2.85;;;;;;;11.41;95.73;93198.44;5066193;28;20537;-72
2023/07/28 02:25:07;;;;;;;3.80;2.75;;;;;;;11.40;95.47;93202.03;5066850;28;20445;-72
2023/07/28 02:27:33;;;;;;;3.70;2.92;;;;;;;11.44;95.14;93202.38;5064121;28;20052;-72
2023/07/28 02:30:00;;;;;;;3.17;2.80;;;;;;;11.44;94.41;93207.53;5065119;28;20044;-72
2023/07/28 02:32:28;;;;;;;3.10;2.50;;;;;;;11.35;94.83;93209.59;5063950;28;20121;-72
2023/07/28 02:34:55;;;;;;;3.53;2.70;;;;;;;11.31;95.66;93204.09;5064681;28;20203;-72
2023/07/28 02:37:23;;;;;;;3.75;2.70;;;;;;;11.17;95.63;93198.31;5065020;28;20048;-72
2023/07/28 02:39:50;;;;;;;4.20;3.03;;;;;;;11.27;95.86;93209.88;5064743;28;20099;-72
2023/07/28 02:42:16;;;;;;;4.05;2.50;;;;;;;11.20;95.74;93212.53;5061973;28;20048;-72
2023/07/28 02:44:43;;;;;;;3.70;2.50;;;;;;;11.24;96.56;93208.50;5063056;28;20048;-72
2023/07/28 02:47:10;;;;;;;4.03;2.55;;;;;;;11.28;96.78;93211.44;5064644;28;20094;-72
2023/07/28 02:49:37;;;;;;;3.30;2.78;;;;;;;11.32;96.42;93212.59;5064183;28;20178;-71
2023/07/28 02:52:04;;;;;;;3.60;2.97;;;;;;;11.17;97.31;93192.38;5066110;28;20041;-72
2023/07/28 02:54:32;;;;;;;3.83;3.03;;;;;;;11.28;97.89;93208.84;5064088;28;20045;-71
2023/07/28 02:56:58;;;;;;;4.65;3.22;;;;;;;11.23;97.62;93210.31;5066875;28;20472;-72
2023/07/28 02:59:25;;;;;;;4.60;2.92;;;;;;;11.21;97.86;93214.84;5060120;28;20037;-72
2023/07/28 03:01:52;;;;;;;4.70;3.30;;;;;;;11.21;97.02;93209.72;5064975;28;20056;-71
2023/07/28 03:04:20;;;;;;;5.47;2.83;;;;;;;11.20;96.76;93213.28;5066381;28;20465;-71
2023/07/28 03:06:47;;;;;;;4.25;2.90;;;;;;;11.18;97.21;93211.94;5060924;28;20123;-72
2023/07/28 03:09:15;;;;;;;3.75;2.85;;;;;;;11.16;97.09;93209.56;5063130;28;20450;-72
2023/07/28 03:11:43;;;;;;;4.38;2.92;;;;;;;11.20;97.26;93213.28;5063742;28;20056;-71
2023/07/28 03:14:09;;;;;;;4.60;3.00;;;;;;;11.19;96.60;93211.72;5060980;28;20094;-72
2023/07/28 03:16:36;;;;;;;3.33;2.75;;;;;;;11.12;98.35;93215.34;5065637;28;20094;-71
2023/07/28 03:19:03;;;;;;;4.60;3.17;;;;;;;11.02;99.52;93213.28;5062787;28;20461;-72
2023/07/28 03:21:30;;;;;;;5.05;3.28;;;;;;;10.93;99.95;93218.66;5064905;28;20117;-71
2023/07/28 03:23:57;;;;;;;3.60;3.17;;;;;;;10.99;99.83;93224.75;5065432;28;20041;-72
2023/07/28 03:26:24;;;;;;;4.50;2.95;;;;;;;11.08;98.94;93227.84;5064580;28;20041;-71
2023/07/28 03:28:52;;;;;;;3.50;2.88;;;;;;;11.07;99.44;93221.91;5063640;28;20383;-71
2023/07/28 03:31:19;;;;;;;3.90;3.38;;;;;;;11.12;99.63;93230.78;5065510;28;20049;-71
2023/07/28 03:33:45;;;;;;;3.75;2.97;;;;;;;11.20;97.78;93238.22;5059391;28;20494;-72
2023/07/28 03:36:13;;;;;;;3.05;2.60;;;;;;;11.21;97.06;93238.00;5064882;28;20046;-72
2023/07/28 03:38:40;;;;;;;3.78;2.95;;;;;;;11.17;98.05;93228.34;5062640;28;20053;-71
2023/07/28 03:41:07;;;;;;;5.03;3.30;;;;;;;11.10;99.46;93218.13;5068164;28;20472;-71
2023/07/28 03:43:33;;;;;;;3.72;3.05;;;;;;;10.77;100.00;93194.31;5067049;28;20052;-72
2023/07/28 03:46:02;;;;;;;4.43;3.63;;;;;;;10.97;100.00;93216.47;5066515;28;20134;-71
2023/07/28 03:48:28;;;;;;;4.65;3.55;;;;;;;11.11;100.00;93234.34;5069822;28;20078;-71
2023/07/28 03:50:55;;;;;;;4.15;3.75;;;;;;;11.19;99.99;93236.63;5066781;28;20045;-71
2023/07/28 03:53:22;;;;;;;6.05;3.67;;;;;;;11.25;99.10;93235.00;5068342;28;20093;-71
2023/07/28 03:55:49;;;;;;;3.72;3.35;;;;;;;11.27;99.82;93235.56;5067190;28;20045;-71
2023/07/28 03:58:16;;;;;;;4.45;3.50;;;;;;;11.27;99.27;93241.50;5066230;28;20495;-71
2023/07/28 04:00:42;;;;;;;4.32;3.25;;;;;;;11.34;98.14;93247.38;5066642;28;20049;-71
2023/07/28 04:03:10;;;;;;;8.10;3.58;;;;;;;11.36;99.11;93236.88;5065798;28;20052;-71
2023/07/28 04:05:37;;;;;;;4.25;3.47;;;;;;;11.27;98.33;93223.53;5065889;28;20456;-71
2023/07/28 04:08:04;;;;;;;4.53;3.45;;;;;;;11.34;97.94;93238.88;5064210;28;20052;-71
2023/07/28 04:10:31;;;;;;;6.07;3.30;;;;;;;11.31;97.76;93234.97;5067527;28;20037;-71
2023/07/28 04:12:58;;;;;;;5.30;3.85;;;;;;;11.28;98.82;93237.94;5065603;28;20095;-72
2023/07/28 04:15:24;;;;;;;5.00;3.58;;;;;;;11.30;99.13;93241.06;5064081;28;20045;-72
2023/07/28 04:17:51;;;;;;;5.30;3.58;;;;;;;11.41;98.91;93238.81;5064828;28;20106;-72
2023/07/28 04:20:19;;;;;;;3.83;3.08;;;;;;;11.44;98.87;93239.16;5064022;28;20597;-72
2023/07/28 04:22:46;;;;;;;4.50;3.60;;;;;;;11.48;99.03;93234.41;5063472;28;20091;-71
2023/07/28 04:25:13;;;;;;;6.30;3.58;;;;;;;11.50;98.30;93230.56;5062814;28;20060;-71
2023/07/28 04:27:39;;;;;;;4.65;3.60;;;;;;;11.64;98.18;93235.59;5063674;28;20076;-72
2023/07/28 04:30:07;;;;;;;7.70;3.72;;;;;;;11.73;98.19;93238.66;5065034;28;20453;-71
2023/07/28 04:32:34;;;;;;;7.65;3.70;;;;;;;11.79;98.33;93255.03;5064208;28;20056;-71
2023/07/28 04:35:00;;;;;;;4.13;3.60;;;;;;;11.79;98.64;93250.66;5061853;28;20555;-72
2023/07/28 04:37:29;;;;;;;4.50;3.58;;;;;;;11.86;98.56;93248.03;5063227;28;20105;-71
2023/07/28 04:39:55;;;;;;;6.45;4.70;;;;;;;11.99;97.66;93254.81;5063216;28;20057;-71
2023/07/28 04:42:22;;;;;;;5.95;4.35;;;;;;;12.08;97.17;93258.66;5064255;28;20088;-71
2023/07/28 04:44:49;;;;;;;4.90;3.75;;;;;;;12.08;97.03;93243.22;5064428;28;20651;-71
2023/07/28 04:47:15;;;;;;;6.30;4.13;;;;;;;12.12;97.47;93246.13;5068175;28;20040;-71
2023/07/28 04:49:42;;;;;;;4.53;3.55;;;;;;;12.22;96.51;93243.81;5066527;28;20048;-71
2023/07/28 04:52:09;;;;;;;5.78;3.72;;;;;;;12.30;96.52;93245.31;5068259;28;20044;-71
2023/07/28 04:54:37;;;;;;;5.68;4.03;;;;;;;12.40;96.50;93252.50;5068302;28;20418;-71
2023/07/28 04:57:04;;;;;;;9.25;5.05;;;;;;;12.36;99.04;93241.84;5068466;28;20595;-71
2023/07/28 04:59:31;;;;;;;10.43;5.53;;;;;;;12.19;100.00;93231.41;5068430;28;20041;-71
2023/07/28 05:01:58;;;;;;;8.00;5.43;;;;;;;12.26;99.83;93242.38;5067865;28;20045;-71
2023/07/28 05:04:25;;;;;;;7.55;5.60;;;;;;;12.36;99.72;93241.09;5068475;28;20538;-71
2023/07/28 05:06:51;;;;;;;8.98;4.32;;;;;;;12.42;100.00;93235.81;5068637;28;20106;-71
2023/07/28 05:09:18;;;;;;;6.88;4.22;;;;;;;12.40;100.00;93243.00;5065781;28;20460;-71
2023/07/28 05:11:46;;;;;;;8.65;5.00;;;;;;;12.46;99.71;93238.75;5068092;28;20135;-71
2023/07/28 05:14:13;;;;;;;4.90;4.32;;;;;;;12.48;99.90;93247.06;5062557;28;20053;-71
2023/07/28 05:16:40;;;;;;;5.15;4.43;;;;;;;12.42;98.21;93210.06;5067309;28;20755;-72
2023/07/28 05:19:07;;;;;;;6.00;5.00;;;;;;;12.63;98.61;93240.72;5067971;28;20044;-71
2023/07/28 05:21:34;;;;;;;5.28;4.70;;;;;;;12.66;98.79;93232.53;5065180;28;20052;-71
2023/07/28 05:24:01;;;;;;;7.68;4.85;;;;;;;12.67;98.95;93232.31;5066204;28;20036;-71
2023/07/28 05:26:27;;;;;;;6.85;5.93;;;;;;;12.75;99.77;93238.13;5067960;28;20044;-71
2023/07/28 05:28:55;;;;;;;6.28;5.07;;;;;;;12.78;99.99;93225.59;5066095;28;20044;-71
2023/07/28 05:31:22;;;;;;;6.38;5.20;;;;;;;12.89;99.90;93228.41;5066166;28;20548;-71
2023/07/28 05:33:49;;;;;;;6.20;5.07;;;;;;;12.95;100.00;93227.50;5068472;28;20048;-71
2023/07/28 05:36:16;;;;;;;6.68;4.88;;;;;;;13.01;100.00;93218.09;5065279;28;20612;-71
2023/07/28 05:38:42;;;;;;;12.00;5.00;;;;;;;13.23;99.35;93213.16;5061406;28;20045;-71
2023/07/28 05:41:09;;;;;;;7.63;5.25;;;;;;;13.47;96.50;93211.34;5068045;28;20498;-71
2023/07/28 05:43:36;;;;;;;9.77;6.28;;;;;;;13.70;97.46;93214.13;5067671;28;20060;-71
2023/07/28 05:46:04;;;;;;;8.65;5.40;;;;;;;13.89;95.18;93210.34;5064590;28;20498;-71
2023/07/28 05:48:30;;;;;;;8.55;5.70;;;;;;;14.00;93.84;93197.63;5066623;28;20052;-71
2023/07/28 05:50:57;;;;;;;9.13;5.45;;;;;;;14.04;95.79;93211.66;5067389;28;20044;-70
2023/07/28 05:53:24;;;;;;;11.68;5.47;;;;;;;14.13;92.09;93206.91;5064994;28;20094;-70
2023/07/28 05:55:50;;;;;;;7.93;5.05;;;;;;;14.27;90.90;93205.59;5065846;28;20472;-71
2023/07/28 05:58:17;;;;;;;9.00;4.95;;;;;;;14.52;90.72;93198.50;5060058;28;20445;-70
2023/07/28 06:00:44;;;;;;;8.30;5.13;;;;;;;14.71;87.17;93196.47;5067026;28;20135;-70
2023/07/28 06:03:12;;;;;;;13.60;6.22;;;;;;;14.74;87.48;93190.84;5064936;28;20571;-70
2023/07/28 06:05:40;;;;;;;12.68;5.68;;;;;;;14.99;87.68;93194.06;5064904;28;20118;-71
2023/07/28 06:08:07;;;;;;;14.55;7.03;;;;;;;15.18;87.83;93184.25;5063336;28;20086;-71
2023/07/28 06:10:34;;;;;;;18.70;6.70;;;;;;;15.41;86.52;93190.22;5064803;28;20044;-71
2023/07/28 06:13:01;;;;;;;22.83;7.68;;;;;;;15.65;84.67;93188.19;5062792;28;20555;-71
2023/07/28 06:15:28;;;;;;;23.73;7.38;;;;;;;15.97;85.33;93197.09;5064983;28;20044;-71
2023/07/28 06:17:55;;;;;;;15.80;7.00;;;;;;;15.99;83.77;93197.63;5067258;28;20053;-71
2023/07/28 06:20:24;;;;;;;10.88;4.82;;;;;;;16.28;84.27;93197.38;5063890;28;20102;-71
2023/07/28 06:22:50;;;;;;;15.45;5.93;;;;;;;16.54;82.39;93185.41;5066344;28;20056;-71
2023/07/28 06:25:17;;;;;;;14.30;5.63;;;;;;;16.79;82.44;93193.66;5065818;28;20110;-71
2023/07/28 06:27:44;;;;;;;11.85;5.13;;;;;;;17.12;79.34;93185.88;5064614;28;20048;-71
2023/07/28 06:30:12;;;;;;;12.15;4.95;;;;;;;17.51;77.87;93185.53;5063484;28;20178;-70
2023/07/28 06:32:38;;;;;;;11.50;4.68;;;;;;;17.84;75.57;93180.19;5066080;28;20506;-71
2023/07/28 06:35:07;;;;;;;12.68;4.57;;;;;;;18.28;73.82;93182.41;5065619;28;20049;-70
2023/07/28 06:37:37;;;;;;;8.27;4.22;;;;;;;18.43;70.93;93192.03;5063231;28;20048;-70
2023/07/28 06:40:05;;;;;;;7.57;4.55;;;;;;;18.82;69.64;93188.16;5065243;28;20051;-70
2023/07/28 06:42:32;;;;;;;10.77;4.57;;;;;;;18.93;69.69;93186.31;5066181;28;20052;-70
2023/07/28 06:44:58;;;;;;;8.55;3.60;;;;;;;18.92;69.84;93184.75;5063181;28;20857;-70
2023/07/28 06:47:25;;;;;;;15.38;4.72;;;;;;;18.85;69.43;93180.84;5062607;28;20052;-70
2023/07/28 06:49:52;;;;;;;9.45;4.38;;;;;;;18.99;69.70;93174.06;5065346;28;20422;-70
2023/07/28 06:52:19;;;;;;;9.10;3.20;;;;;;;19.32;67.30;93179.78;5066966;28;20044;-71
2023/07/28 06:54:49;;;;;;;8.02;3.90;;;;;;;19.63;64.39;93187.47;5065105;28;20048;-71
2023/07/28 06:57:15;;;;;;;10.85;3.50;;;;;;;19.94;63.70;93180.56;5067054;28;20068;-71
2023/07/28 06:59:42;;;;;;;11.15;3.72;;;;;;;20.31;62.99;93181.94;5065888;28;20048;-71
2023/07/28 07:02:09;;;;;;;5.85;3.25;;;;;;;20.66;61.37;93181.97;5062110;28;20090;-71
2023/07/28 07:04:36;;;;;;;6.88;3.03;;;;;;;21.17;61.45;93191.22;5062253;28;20445;-71
2023/07/28 07:07:03;;;;;;;10.90;2.97;;;;;;;21.63;59.62;93182.09;5062303;28;20056;-71
2023/07/28 07:09:29;;;;;;;10.57;2.72;;;;;;;22.05;56.28;93184.22;5064310;28;20113;-71
2023/07/28 07:11:57;;;;;;;6.15;1.83;;;;;;;22.45;52.73;93178.69;5061993;28;20059;-71
2023/07/28 07:14:24;;;;;;;10.18;2.72;;;;;;;22.80;53.77;93179.25;5062355;28;20506;-71
2023/07/28 07:16:51;;;;;;;4.95;1.50;;;;;;;23.21;52.10;93180.38;5065265;28;20041;-71
2023/07/28 07:19:18;;;;;;;3.00;1.35;;;;;;;23.52;50.49;93175.66;5062201;28;20052;-71
2023/07/28 07:21:45;;;;;;;3.10;1.13;;;;;;;23.69;48.04;93183.72;5064076;28;20558;-72
2023/07/28 07:24:13;;;;;;;2.33;1.25;;;;;;;24.06;48.06;93183.00;5065757;28;20052;-72
2023/07/28 07:26:40;;;;;;;2.25;1.30;;;;;;;24.34;47.28;93183.72;5065018;28;20070;-72
2023/07/28 07:29:08;;;;;;;5.50;2.95;;;;;;;24.56;44.55;93184.81;5064386;28;20090;-71
2023/07/28 07:31:35;;;;;;;3.75;1.55;;;;;;;24.71;44.55;93193.41;5064333;28;20041;-72
2023/07/28 07:34:03;;;;;;;3.22;1.42;;;;;;;24.86;44.06;93190.44;5062676;28;20097;-72
2023/07/28 07:36:31;;;;;;;3.95;1.23;;;;;;;24.87;43.42;93199.88;5064173;28;20061;-72
2023/07/28 07:38:58;;;;;;;6.32;2.40;;;;;;;24.99;43.37;93191.44;5061082;28;20044;-72
2023/07/28 07:41:24;;;;;;;2.20;1.13;;;;;;;25.12;43.49;93199.56;5060752;28;20045;-72
2023/07/28 07:43:54;;;;;;;3.05;1.67;;;;;;;25.20;42.75;93193.56;5063087;28;20105;-71
2023/07/28 07:46:22;;;;;;;3.47;1.40;;;;;;;25.35;42.26;93189.75;5061320;28;20063;-72
2023/07/28 07:48:49;;;;;;;3.97;1.20;;;;;;;25.31;41.96;93186.16;5061598;28;20045;-72
2023/07/28 07:51:18;;;;;;;4.80;1.40;;;;;;;25.46;42.65;93198.91;5063823;28;20552;-72
2023/07/28 07:53:45;;;;;;;1.90;1.10;;;;;;;25.67;41.54;93193.16;5063947;28;20048;-72
2023/07/28 07:56:12;;;;;;;10.73;2.28;;;;;;;25.74;42.12;93190.06;5064732;28;20444;-72
2023/07/28 07:58:39;;;;;;;2.28;1.25;;;;;;;25.93;41.09;93202.97;5064350;28;20055;-72
2023/07/28 08:01:06;;;;;;;2.30;1.10;;;;;;;26.06;41.13;93196.00;5063457;28;20650;-72
2023/07/28 08:03:35;;;;;;;2.97;1.30;;;;;;;26.37;40.48;93194.34;5064277;28;20057;-72
2023/07/28 08:06:02;;;;;;;2.60;1.27;;;;;;;26.54;40.13;93201.50;5062079;28;20556;-72
2023/07/28 08:08:29;;;;;;;3.65;1.23;;;;;;;26.45;38.77;93187.53;5064903;28;20094;-72
2023/07/28 08:10:56;;;;;;;2.70;1.27;;;;;;;26.66;39.65;93195.59;5063377;28;20566;-72
2023/07/28 08:13:23;;;;;;;4.53;1.40;;;;;;;26.76;38.55;93199.78;5063969;28;20053;-72
2023/07/28 08:15:50;;;;;;;1.98;1.02;;;;;;;26.78;38.20;93203.63;5064939;28;20070;-72
2023/07/28 08:18:17;;;;;;;5.10;1.00;;;;;;;26.97;38.62;93191.25;5065146;28;20102;-72
2023/07/28 08:20:45;;;;;;;2.90;1.42;;;;;;;27.11;36.75;93194.44;5064482;28;20114;-72
2023/07/28 08:23:12;;;;;;;3.88;1.10;;;;;;;27.10;37.10;93198.19;5063944;28;20048;-72
2023/07/28 08:25:39;;;;;;;4.97;1.60;;;;;;;27.28;38.28;93193.63;5064229;28;20048;-72
2023/07/28 08:28:05;;;;;;;2.15;1.42;;;;;;;27.34;37.04;93188.94;5061496;28;20103;-72
2023/07/28 08:30:32;;;;;;;3.25;1.10;;;;;;;27.58;37.64;93188.41;5063882;28;20571;-72
2023/07/28 08:32:59;;;;;;;2.20;0.93;;;;;;;27.59;37.16;93195.22;5063727;28;20516;-72
2023/07/28 08:35:26;;;;;;;2.72;1.10;;;;;;;27.74;37.39;93196.59;5063423;28;20052;-72
2023/07/28 08:37:54;;;;;;;6.93;2.08;;;;;;;27.83;36.67;93187.81;5062300;28;20049;-72
2023/07/28 08:40:21;;;;;;;2.67;1.23;;;;;;;27.79;36.33;93185.06;5063108;28;20467;-72
2023/07/28 08:42:49;;;;;;;4.45;1.20;;;;;;;27.90;36.37;93192.63;5063436;28;20098;-72
2023/07/28 08:45:16;;;;;;;1.95;1.08;;;;;;;27.86;36.67;93179.28;5064706;28;20053;-72
2023/07/28 08:47:43;;;;;;;1.85;1.05;;;;;;;27.84;36.39;93176.19;5066138;28;20555;-72
2023/07/28 08:50:11;;;;;;;4.18;1.17;;;;;;;27.95;36.56;93173.94;5063257;28;20464;-72
2023/07/28 08:52:37;;;;;;;2.47;1.08;;;;;;;28.18;36.61;93173.66;5062130;28;20513;-72
2023/07/28 08:55:06;;;;;;;1.83;1.15;;;;;;;28.07;36.35;93170.59;5061967;28;20117;-72
2023/07/28 08:57:33;;;;;;;2.38;1.02;;;;;;;28.24;35.63;93170.50;5063415;28;20053;-72
2023/07/28 09:00:07;;;;;;;2.13;1.15;;;;;;;28.56;36.77;93169.31;5065408;28;20044;-72
2023/07/28 09:02:33;;;;;;;3.42;1.63;;;;;;;28.80;35.74;93163.34;5064761;28;20052;-72
2023/07/28 09:05:04;;;;;;;2.58;1.25;;;;;;;28.89;34.42;93163.28;5064543;28;20090;-72
2023/07/28 09:07:35;;;;;;;1.77;0.90;;;;;;;29.03;35.68;93152.41;5062670;28;20057;-72
2023/07/28 09:10:02;;;;;;;2.40;1.40;;;;;;;28.97;33.23;93156.38;5065240;28;20078;-72
2023/07/28 09:12:32;;;;;;;2.55;1.13;;;;;;;29.27;33.89;93153.53;5063722;28;20045;-72
2023/07/28 09:14:59;;;;;;;1.73;0.90;;;;;;;29.39;35.26;93145.59;5063043;28;20498;-72
2023/07/28 09:17:26;;;;;;;3.63;1.52;;;;;;;29.61;35.13;93138.34;5065609;28;20502;-72
2023/07/28 09:19:53;;;;;;;2.25;1.10;;;;;;;29.91;34.09;93137.34;5065209;28;20080;-72
2023/07/28 09:22:21;;;;;;;1.92;1.02;;;;;;;29.85;31.92;93136.81;5064579;28;20052;-72
2023/07/28 09:24:48;;;;;;;2.05;1.00;;;;;;;28.96;33.17;93125.75;5066951;28;20044;-72
2023/07/28 09:27:22;;;;;;;2.67;1.17;;;;;;;28.03;33.54;93127.47;5066335;28;20040;-72
2023/07/28 09:29:51;;;;;;;1.85;0.90;;;;;;;27.99;33.08;93129.97;5063204;28;20045;-72
2023/07/28 09:32:29;;;;;;;1.98;0.93;;;;;;;27.03;35.56;93124.09;5065088;28;20048;-72
2023/07/28 09:35:09;;;;;;;2.30;1.30;;;;;;;27.23;36.13;93124.47;5065441;28;20040;-72
2023/07/28 09:37:38;;;;;;;1.48;0.80;;;;;;;27.08;35.18;93044.84;5065932;28;20109;-72
2023/07/28 09:40:11;;;;;;;1.83;0.93;;;;;;;28.00;35.30;93115.69;5064892;28;20041;-72
2023/07/28 09:42:38;;;;;;;2.33;1.33;;;;;;;27.42;34.40;93118.78;5064598;28;20139;-72
2023/07/28 09:45:08;;;;;;;2.53;1.50;;;;;;;28.09;35.03;93115.63;5063931;28;20036;-72
2023/07/28 09:47:36;;;;;;;2.45;1.10;;;;;;;28.46;34.64;93097.28;5064230;28;20064;-72
2023/07/28 09:50:05;;;;;;;3.10;1.35;;;;;;;28.99;33.46;93122.44;5066347;28;20044;-72
2023/07/28 09:52:35;;;;;;;1.52;0.90;;;;;;;29.25;32.90;93111.53;5066003;28;20044;-72
2023/07/28 09:55:07;;;;;;;3.47;1.33;;;;;;;29.05;32.63;93111.31;5067825;28;20052;-72
2023/07/28 09:57:39;;;;;;;2.08;1.08;;;;;;;29.22;33.99;93112.22;5065481;28;20131;-72
2023/07/28 10:00:11;;;;;;;2.25;0.95;;;;;;;29.33;32.09;93110.69;5065435;28;20045;-72
2023/07/28 10:02:40;;;;;;;3.95;1.65;;;;;;;28.75;32.33;93098.28;5064747;28;20109;-72
2023/07/28 10:05:07;;;;;;;2.95;1.40;;;;;;;28.92;32.94;93107.88;5065704;28;20051;-72
2023/07/28 10:07:37;;;;;;;2.20;1.10;;;;;;;29.43;32.93;93108.69;5061986;28;20040;-72
2023/07/28 10:10:07;;;;;;;2.50;1.10;;;;;;;29.72;34.28;93106.94;5065899;28;20854;-72
2023/07/28 10:12:42;;;;;;;2.17;1.00;;;;;;;30.22;33.54;93098.88;5064804;28;20052;-72
2023/07/28 10:15:15;;;;;;;4.88;1.40;;;;;;;29.83;31.14;93094.00;5065580;28;20365;-72
2023/07/28 10:17:45;;;;;;;2.35;1.13;;;;;;;30.00;31.56;93103.56;5064665;28;20048;-72
2023/07/28 10:20:34;;;;;;;8.52;1.42;;;;;;;30.35;32.57;93104.88;5062374;28;20048;-72
2023/07/28 10:23:06;;;;;;;1.75;0.98;;;;;;;30.72;33.19;93093.38;5065781;28;20182;-72
2023/07/28 10:25:36;;;;;;;1.95;1.10;;;;;;;30.92;31.99;93096.91;5064741;28;20041;-72
2023/07/28 10:28:03;;;;;;;3.35;1.08;;;;;;;30.20;30.61;93088.63;5064204;28;20051;-72
2023/07/28 10:30:36;;;;;;;2.67;1.15;;;;;;;30.34;32.75;93074.19;5065063;28;20059;-72
2023/07/28 10:33:03;;;;;;;3.35;1.38;;;;;;;30.76;31.67;93081.75;5062243;28;20136;-72
2023/07/28 10:35:33;;;;;;;4.95;2.10;;;;;;;30.88;31.34;93072.19;5064041;28;20114;-72
2023/07/28 10:37:59;;;;;;;2.95;1.40;;;;;;;31.27;32.46;93069.66;5066107;28;20094;-72
2023/07/28 10:40:31;;;;;;;5.57;1.70;;;;;;;31.57;32.36;93074.50;5061672;28;20502;-72
2023/07/28 10:42:59;;;;;;;3.22;1.55;;;;;;;31.84;31.25;93080.00;5066088;28;20052;-72
2023/07/28 10:45:28;;;;;;;2.75;1.45;;;;;;;32.00;31.44;93071.25;5064549;28;20101;-72
2023/07/28 10:47:59;;;;;;;2.47;1.45;;;;;;;31.77;30.36;93058.63;5063069;28;20132;-72
2023/07/28 10:50:28;;;;;;;3.63;1.42;;;;;;;32.20;30.77;93066.69;5064750;28;20045;-72
2023/07/28 10:52:55;;;;;;;3.13;1.67;;;;;;;32.29;29.95;93071.78;5061607;28;20083;-72
2023/07/28 10:55:23;;;;;;;2.03;1.10;;;;;;;32.33;30.12;93069.97;5065848;28;20502;-72
2023/07/28 10:57:52;;;;;;;2.40;1.35;;;;;;;32.59;30.65;93065.13;5064133;28;20044;-72
2023/07/28 11:00:21;;;;;;;1.88;1.00;;;;;;;32.33;30.73;93064.66;5065698;28;20045;-72
2023/07/28 11:02:50;;;;;;;2.67;1.45;;;;;;;32.49;30.03;93053.19;5062270;28;20048;-72
2023/07/28 11:05:22;;;;;;;3.72;1.58;;;;;;;32.53;30.18;93060.09;5062782;28;20056;-72
2023/07/28 11:07:50;;;;;;;2.40;1.20;;;;;;;32.34;30.25;93058.22;5062433;28;20076;-72
2023/07/28 11:10:17;;;;;;;2.13;1.08;;;;;;;31.93;30.31;93052.50;5066081;28;20416;-72
2023/07/28 11:12:46;;;;;;;5.60;1.60;;;;;;;32.09;30.08;93053.22;5063596;28;20048;-72
2023/07/28 11:15:14;;;;;;;2.50;1.08;;;;;;;31.97;29.67;93056.00;5062853;28;20056;-72
2023/07/28 11:17:42;;;;;;;1.77;1.13;;;;;;;32.06;29.34;93045.94;5063163;28;20040;-72
2023/07/28 11:20:16;;;;;;;2.33;1.05;;;;;;;32.41;29.92;93052.28;5061415;28;20098;-72
2023/07/28 11:22:45;;;;;;;3.30;1.50;;;;;;;32.48;29.97;93039.13;5064546;28;20501;-72
2023/07/28 11:25:12;;;;;;;3.03;1.60;;;;;;;32.61;30.94;93037.06;5063678;28;20056;-72
2023/07/28 11:27:41;;;;;;;2.58;1.38;;;;;;;32.72;31.63;93034.56;5063617;28;20584;-72
2023/07/28 11:30:09;;;;;;;2.08;1.30;;;;;;;32.33;30.36;93031.97;5062649;28;20521;-72
2023/07/28 11:32:37;;;;;;;3.10;1.73;;;;;;;31.79;30.31;93029.06;5061476;28;20568;-72
2023/07/28 11:35:05;;;;;;;2.05;0.90;;;;;;;30.34;32.38;93029.94;5062731;28;20086;-72